Data for 10/17/2015

Time Sea-Level Adjusted Pressure Absolute Pressure Temperature Relative Humidity Dew Point   
(mb) (inHg) (mb) (inHg) (C) (F) (%) (C) (F)
00:05 1022 30.18 852 25.16 9.8 49.7 41 -2.6 27.3
00:10 1022 30.18 852 25.16 9.8 49.6 41 -2.7 27.2
00:15 1022 30.18 852 25.16 9.7 49.5 41 -2.7 27.1
00:20 1022 30.18 852 25.16 9.6 49.2 43 -2.5 27.5
00:25 1022 30.18 851 25.13 9.3 48.7 44 -2.4 27.6
00:30 1022 30.18 851 25.13 9.1 48.4 44 -2.6 27.3
00:35 1022 30.18 851 25.13 9.3 48.7 43 -2.6 27.3
00:40 1022 30.18 851 25.13 9.2 48.5 43 -2.7 27.1
00:45 1022 30.18 851 25.13 9.2 48.6 43 -2.6 27.4
00:50 1022 30.18 851 25.13 9.2 48.6 43 -2.6 27.3
00:55 1022 30.18 851 25.13 9.3 48.7 43 -2.7 27.1
01:00 1022 30.18 851 25.13 9.5 49.1 42 -2.7 27.2
01:05 1022 30.18 851 25.13 9.6 49.2 42 -2.7 27.2
01:10 1022 30.18 851 25.13 9.6 49.3 42 -2.7 27.2
01:15 1022 30.18 851 25.13 9.5 49 42 -2.7 27.2
01:20 1022 30.18 851 25.13 9.4 48.9 42 -2.7 27.1
01:25 1022 30.18 851 25.13 9.2 48.6 43 -2.6 27.3
01:30 1022 30.18 851 25.13 9 48.1 44 -2.5 27.5
01:35 1022 30.18 851 25.13 8.7 47.7 45 -2.6 27.3
01:40 1022 30.18 851 25.13 8.7 47.6 45 -2.6 27.4
01:45 1022 30.18 851 25.13 8.7 47.6 45 -2.6 27.4
01:50 1022 30.18 851 25.13 8.6 47.5 46 -2.5 27.6
01:55 1022 30.18 851 25.13 8.5 47.2 46 -2.4 27.7
02:00 1022 30.18 851 25.13 8.2 46.8 47 -2.5 27.5
02:05 1022 30.18 851 25.13 8.1 46.5 47 -2.4 27.6
02:10 1022 30.18 851 25.13 7.9 46.1 48 -2.3 27.8
02:15 1022 30.18 851 25.13 7.5 45.4 50 -2.4 27.7
02:20 1022 30.18 851 25.13 7.3 45.2 48 -3.1 26.5
02:25 1022 30.18 851 25.13 7.8 46 47 -2.9 26.8
02:30 1022 30.18 851 25.13 7.4 45.4 47 -3.1 26.4
02:35 1022 30.18 851 25.13 7.4 45.3 47 -3.2 26.2
02:40 1022 30.18 851 25.13 7.6 45.6 48 -2.8 26.9
02:45 1022 30.18 851 25.13 7.1 44.8 50 -2.6 27.4
02:50 1022 30.18 851 25.13 6.7 44.1 50 -2.8 26.9
02:55 1022 30.18 851 25.13 6.7 44 51 -2.7 27.2
03:00 1022 30.18 851 25.13 6.9 44.5 49 -3 26.7
03:05 1022 30.18 851 25.13 7 44.7 50 -2.8 27
03:10 1022 30.18 851 25.13 7 44.5 50 -2.6 27.3
03:15 1022 30.18 851 25.13 7 44.6 51 -2.5 27.5
03:20 1022 30.18 851 25.13 6.7 44 52 -2.5 27.5
03:25 1022 30.18 851 25.13 6.3 43.3 53 -2.5 27.4
03:30 1022 30.18 851 25.13 6.3 43.3 52 -2.8 26.9
03:35 1022 30.18 851 25.13 6.4 43.4 52 -2.8 27
03:40 1022 30.18 851 25.13 6.4 43.4 51 -3.2 26.3
03:45 1022 30.18 851 25.13 6.5 43.6 50 -3.1 26.5
03:50 1022 30.18 851 25.13 6.7 44.1 51 -2.7 27.1
03:55 1022 30.18 851 25.13 7 44.7 50 -2.8 27
04:00 1022 30.18 851 25.13 7.2 44.9 50 -2.7 27.2
04:05 1022 30.18 851 25.13 7 44.6 51 -2.5 27.5
04:10 1022 30.18 851 25.13 6.6 43.9 50 -3.1 26.5
04:15 1022 30.18 851 25.13 6.6 43.8 51 -3 26.7
04:20 1022 30.18 851 25.13 6.2 43.1 50 -3.3 26
04:25 1021 30.15 851 25.13 6.5 43.8 48 -3.5 25.6
04:30 1021 30.15 851 25.13 6.5 43.7 50 -3.3 26.1
04:35 1021 30.15 851 25.13 6.5 43.6 51 -3 26.6
04:40 1021 30.15 851 25.13 6.4 43.5 51 -3 26.6
04:45 1021 30.15 851 25.13 6.1 43 50 -3.6 25.6
04:50 1021 30.15 851 25.13 5.4 41.7 51 -3.9 25.1
04:55 1021 30.15 851 25.13 5.9 42.7 47 -4.5 24
05:00 1021 30.15 851 25.13 7.1 44.7 46 -3.7 25.4
05:05 1021 30.15 851 25.13 7.3 45.1 47 -3.1 26.4
05:10 1021 30.15 851 25.13 6.8 44.2 50 -3 26.6
05:15 1021 30.15 851 25.13 6.3 43.3 51 -3.1 26.5
05:20 1021 30.15 851 25.13 6.4 43.5 50 -3.1 26.3
05:25 1021 30.15 851 25.13 6.3 43.3 51 -3 26.5
05:30 1021 30.15 851 25.13 6.1 42.9 52 -3.2 26.3
05:35 1021 30.15 851 25.13 6.1 42.9 52 -3.1 26.3
05:40 1021 30.15 851 25.13 6 42.8 52 -3.2 26.2
05:45 1021 30.15 851 25.13 5.9 42.5 52 -3.3 26.1
05:50 1021 30.15 850 25.1 5.9 42.6 52 -3.3 26.1
05:55 1021 30.15 850 25.1 5.6 42.1 53 -3.2 26.2
06:00 1021 30.15 850 25.1 5.7 42.3 52 -3.4 25.9
06:05 1021 30.15 850 25.1 6.1 43 51 -3.3 26
06:10 1021 30.15 850 25.1 6.2 43.1 51 -3.2 26.3
06:15 1021 30.15 850 25.1 6 42.8 52 -3.1 26.4
06:20 1021 30.15 850 25.1 5.6 42.1 53 -3.2 26.3
06:25 1021 30.15 850 25.1 5.6 42 53 -3.2 26.2
06:30 1021 30.15 850 25.1 5.7 42.3 52 -3.4 25.9
06:35 1021 30.15 850 25.1 5.6 42 53 -3.3 26
06:40 1021 30.15 850 25.1 5.5 41.9 53 -3.4 25.9
06:45 1021 30.15 850 25.1 5.6 42 52 -3.4 25.8
06:50 1021 30.15 850 25.1 5.7 42.2 51 -3.6 25.5
06:55 1021 30.15 850 25.1 6 42.8 51 -3.5 25.7
07:00 1021 30.15 850 25.1 6 42.8 50 -3.5 25.7
07:05 1021 30.15 850 25.1 6.2 43.2 49 -3.7 25.4
07:10 1021 30.15 850 25.1 6.3 43.4 49 -3.5 25.6
07:15 1021 30.15 850 25.1 6.4 43.6 48 -3.7 25.3
07:20 1021 30.15 850 25.1 6.9 44.5 46 -3.9 25.1
07:25 1021 30.15 850 25.1 7.2 45 45 -3.9 24.9
07:30 1021 30.15 850 25.1 7.4 45.4 46 -3.6 25.6
07:35 1021 30.15 850 25.1 7.2 45 46 -3.7 25.3
07:40 1021 30.15 850 25.1 7.4 45.4 45 -3.6 25.5
07:45 1021 30.15 850 25.1 7.6 45.6 45 -3.5 25.7
07:50 1021 30.15 850 25.1 7.9 46.2 45 -3.3 26
07:55 1021 30.15 850 25.1 7.7 45.9 46 -3.2 26.2
08:00 1021 30.15 850 25.1 8 46.3 45 -3.2 26.3
08:05 1021 30.15 850 25.1 8.1 46.6 45 -3.2 26.2
08:10 1021 30.15 850 25.1 8.4 47.1 43 -3.5 25.7
08:15 1021 30.15 850 25.1 8.8 47.9 42 -3.4 25.9
08:20 1021 30.15 851 25.13 9.4 49 41 -3 26.5
08:25 1021 30.15 851 25.13 9.7 49.5 40 -3.2 26.2
08:30 1021 30.15 851 25.13 9.8 49.6 41 -2.9 26.7
08:35 1021 30.15 850 25.1 10.2 50.4 39 -3 26.6
08:40 1021 30.15 850 25.1 10.5 50.9 39 -2.9 26.9
08:45 1021 30.15 850 25.1 10.9 51.7 38 -2.8 27
08:50 1021 30.15 850 25.1 11.3 52.3 36 -3.2 26.2
08:55 1021 30.15 851 25.13 11.5 52.7 36 -2.9 26.8
09:00 1021 30.15 850 25.1 11.6 52.8 37 -2.7 27.1
09:05 1021 30.15 850 25.1 12 53.7 36 -2.5 27.5
09:10 1021 30.15 850 25.1 12.3 54.2 35 -2.5 27.5
09:15 1021 30.15 850 25.1 12.6 54.6 35 -2.4 27.7
09:20 1021 30.15 850 25.1 12.9 55.3 33 -2.8 27
09:25 1021 30.15 850 25.1 13.2 55.8 33 -2.6 27.3
09:30 1021 30.15 850 25.1 13 55.5 34 -2.4 27.6
09:35 1021 30.15 850 25.1 12.8 55 34 -2.6 27.3
09:40 1021 30.15 850 25.1 12.9 55.3 34 -2.5 27.5
09:45 1021 30.15 850 25.1 13.4 56.2 32 -2.7 27.2
09:50 1021 30.15 850 25.1 13.6 56.5 33 -2.1 28.2
09:55 1021 30.15 850 25.1 13.6 56.5 33 -2.3 27.8
10:00 1021 30.15 850 25.1 14.1 57.3 32 -2.4 27.7
10:05 1021 30.15 850 25.1 13.8 56.8 32 -2.5 27.5
10:10 1021 30.15 850 25.1 13.8 56.9 31 -3 26.7
10:15 1021 30.15 850 25.1 14.5 58.2 30 -2.9 26.7
10:20 1021 30.15 850 25.1 14.7 58.5 30 -2.5 27.5
10:25 1021 30.15 850 25.1 14.5 58.2 30 -2.6 27.3
10:30 1020 30.12 850 25.1 14.6 58.4 31 -2.2 28.1
10:35 1020 30.12 850 25.1 14.6 58.4 31 -2 28.3
10:40 1020 30.12 850 25.1 14.9 58.8 31 -2.1 28.2
10:45 1020 30.12 849 25.07 15 59 30 -2.2 28.1
10:50 1020 30.12 849 25.07 15 59 30 -2.3 27.9
10:55 1020 30.12 849 25.07 15.2 59.3 30 -2.1 28.3
11:00 1020 30.12 849 25.07 15.3 59.6 31 -1.8 28.7
11:05 1020 30.12 849 25.07 15.5 60 30 -1.9 28.6
11:10 1020 30.12 849 25.07 15.9 60.6 29 -1.9 28.5
11:15 1020 30.12 849 25.07 16.1 61 29 -2 28.3
11:20 1020 30.12 849 25.07 16.3 61.3 28 -1.9 28.5
11:25 1020 30.12 849 25.07 16.4 61.5 28 -1.9 28.5
11:30 1020 30.12 849 25.07 16 60.8 29 -1.9 28.5
11:35 1020 30.12 849 25.07 16.4 61.6 28 -2.2 28
11:40 1020 30.12 849 25.07 16.9 62.3 27 -2 28.3
11:45 1019 30.09 849 25.07 16.9 62.4 28 -1.7 28.9
11:50 1019 30.09 849 25.07 17.1 62.7 27 -2.1 28.2
11:55 1019 30.09 849 25.07 17.3 63.1 27 -1.9 28.6
12:00 1019 30.09 849 25.07 17.7 63.9 26 -2 28.3
12:05 1019 30.09 848 25.04 17.9 64.1 26 -1.9 28.7
12:10 1019 30.09 848 25.04 18 64.4 26 -1.9 28.6
12:15 1019 30.09 848 25.04 18.1 64.6 25 -2 28.5
12:20 1019 30.09 848 25.04 18.2 64.8 26 -1.6 29.1
12:25 1019 30.09 848 25.04 18.1 64.5 26 -1.7 28.9
12:30 1019 30.09 848 25.04 18 64.3 26 -1.5 29.4
12:35 1019 30.09 848 25.04 18.4 65.1 25 -2.1 28.2
12:40 1019 30.09 848 25.04 19 66.3 24 -1.7 29
12:45 1019 30.09 848 25.04 19.4 66.9 24 -1.7 28.9
12:50 1019 30.09 848 25.04 19.1 66.4 24 -1.8 28.7
12:55 1019 30.09 848 25.04 19.2 66.6 25 -1.1 30.1
13:00 1019 30.09 848 25.04 18.9 65.9 24 -1.9 28.6
13:05 1019 30.09 848 25.04 19.1 66.4 24 -1.8 28.8
13:10 1019 30.09 848 25.04 19.5 67.2 23 -1.8 28.8
13:15 1018 30.06 848 25.04 19.3 66.8 25 -1.2 29.8
13:20 1018 30.06 848 25.04 19.3 66.8 24 -1.6 29.1
13:25 1018 30.06 847 25.01 19.7 67.5 24 -1.5 29.2
13:30 1018 30.06 847 25.01 19.6 67.3 25 -0.7 30.7
13:35 1018 30.06 847 25.01 19.2 66.5 24 -1.4 29.4
13:40 1018 30.06 847 25.01 19.9 67.8 23 -1.4 29.4
13:45 1018 30.06 847 25.01 20.7 69.2 23 -1.2 29.9
13:50 1018 30.06 847 25.01 21 69.8 22 -1.4 29.4
13:55 1018 30.06 847 25.01 21.5 70.7 22 -1 30.3
14:00 1018 30.06 847 25.01 21.1 70 23 -0.9 30.5
14:05 1018 30.06 847 25.01 21.1 70 22 -1.1 30
14:10 1018 30.06 847 25.01 20.9 69.7 23 -0.7 30.7
14:15 1018 30.06 847 25.01 20.8 69.4 22 -1.5 29.3
14:20 1018 30.06 847 25.01 21 69.8 22 -1.4 29.4
14:25 1018 30.06 847 25.01 21.1 69.9 23 -1 30.3
14:30 1017 30.03 847 25.01 20.9 69.6 22 -1.3 29.6
14:35 1017 30.03 847 25.01 21.4 70.5 21 -1.4 29.6
14:40 1017 30.03 847 25.01 21.4 70.5 23 -0.7 30.8
14:45 1017 30.03 847 25.01 21.1 69.9 22 -1.5 29.3
14:50 1017 30.03 847 25.01 21.6 70.8 22 -0.9 30.4
14:55 1017 30.03 846 24.98 21.7 71 21 -1.4 29.5
15:00 1017 30.03 846 24.98 21.7 71.1 22 -1 30.2
15:05 1017 30.03 846 24.98 21.8 71.2 21 -1.3 29.6
15:10 1017 30.03 846 24.98 22 71.5 21 -1.1 30
15:15 1017 30.03 846 24.98 22.4 72.4 21 -1 30.2
15:20 1017 30.03 846 24.98 22.3 72.2 20 -1.2 29.8
15:25 1017 30.03 846 24.98 22.7 72.8 21 -0.8 30.6
15:30 1017 30.03 846 24.98 22.1 71.8 21 -1.1 30.1
15:35 1017 30.03 846 24.98 22.1 71.8 20 -1.4 29.5
15:40 1017 30.03 846 24.98 22.3 72.2 20 -1.2 29.8
15:45 1017 30.03 846 24.98 22.3 72.2 21 -0.8 30.6
15:50 1017 30.03 846 24.98 22.7 72.9 20 -0.9 30.4
15:55 1017 30.03 846 24.98 22.4 72.4 21 -0.8 30.5
16:00 1017 30.03 846 24.98 22.1 71.8 21 -1.3 29.7
16:05 1017 30.03 846 24.98 22.2 72 21 -1.1 30
16:10 1017 30.03 846 24.98 22.1 71.7 21 -1 30.2
16:15 1017 30.03 846 24.98 22.2 72 21 -1.3 29.7
16:20 1017 30.03 846 24.98 22.5 72.5 21 -1 30.3
16:25 1017 30.03 846 24.98 22.4 72.4 21 -0.7 30.7
16:30 1016 30 846 24.98 22.1 71.7 21 -0.8 30.6
16:35 1016 30 846 24.98 21.7 71.1 23 -0.2 31.6
16:40 1016 30 846 24.98 20.9 69.6 24 -0.2 31.6
16:45 1016 30 846 24.98 20.6 69 25 -0.2 31.7
16:50 1016 30 846 24.98 20.4 68.7 24 -0.4 31.2
16:55 1016 30 846 24.98 20 68 25 -0.4 31.3
17:00 1016 30 846 24.98 19.9 67.8 27 0.7 33.2
17:05 1016 30 846 24.98 19.7 67.5 27 0.2 32.4
17:10 1016 30 846 24.98 19.4 66.9 28 0.5 32.9
17:15 1016 30 846 24.98 19.1 66.3 28 0.4 32.8
17:20 1016 30 846 24.98 18.9 66.1 29 0.9 33.5
17:25 1016 30 846 24.98 18.7 65.6 31 1.5 34.6
17:30 1016 30 846 24.98 18 64.4 32 1.3 34.3
17:35 1016 30 846 24.98 17.3 63.2 34 1.6 35
17:40 1016 30 846 24.98 16.8 62.2 34 1.1 33.9
17:45 1016 30 846 24.98 16.7 62 34 1 33.7
17:50 1016 30 846 24.98 16.7 62 33 0.6 33
17:55 1016 30 846 24.98 16.1 61.1 34 0.3 32.6
18:00 1016 30 846 24.98 16.3 61.3 35 1 33.8
18:05 1016 30 846 24.98 15.7 60.2 38 1.4 34.6
18:10 1016 30 846 24.98 15.1 59.3 40 1.8 35.3
18:15 1017 30.03 846 24.98 15.1 59.2 41 1.9 35.5
18:20 1017 30.03 846 24.98 14.4 57.9 42 1.7 35
18:25 1017 30.03 846 24.98 14.5 58.1 39 0.6 33.2
18:30 1017 30.03 846 24.98 15.6 60 32 -0.8 30.5
18:35 1016 30 846 24.98 16.1 61 33 -0.2 31.7
18:40 1017 30.03 846 24.98 16 60.7 35 0.7 33.3
18:45 1017 30.03 846 24.98 15.3 59.5 34 -0.3 31.4
18:50 1017 30.03 846 24.98 15.4 59.7 32 -1 30.2
18:55 1017 30.03 846 24.98 15.4 59.7 33 -0.6 31
19:00 1017 30.03 846 24.98 14.9 58.9 34 -0.6 30.9
19:05 1017 30.03 846 24.98 14.9 58.9 33 -1.1 30
19:10 1017 30.03 846 24.98 15.1 59.1 34 -0.5 31
19:15 1017 30.03 846 24.98 14.4 58 36 -0.4 31.2
19:20 1017 30.03 846 24.98 14.1 57.4 37 -0.4 31.3
19:25 1016 30 846 24.98 14.1 57.5 35 -0.8 30.5
19:30 1016 30 846 24.98 14.3 57.7 35 -1.1 30
19:35 1016 30 846 24.98 14.4 57.9 35 -0.9 30.4
19:40 1016 30 846 24.98 14.4 57.9 34 -1.4 29.6
19:45 1016 30 846 24.98 14.5 58.2 34 -1.2 29.9
19:50 1016 30 845 24.95 14.5 58.2 34 -1.2 29.9
19:55 1016 30 845 24.95 14.6 58.3 33 -1.2 29.8
20:00 1016 30 845 24.95 14.6 58.3 34 -1.1 29.9
20:05 1016 30 845 24.95 14.4 57.8 34 -1.4 29.5
20:10 1016 30 845 24.95 14.3 57.8 34 -1.3 29.7
20:15 1016 30 845 24.95 14.5 58.1 33 -1.3 29.6
20:20 1016 30 845 24.95 14.5 58.1 33 -1.4 29.4
20:25 1016 30 845 24.95 14.4 58 34 -1.3 29.7
20:30 1016 30 845 24.95 14.2 57.5 34 -1.4 29.5
20:35 1016 30 845 24.95 14.1 57.3 34 -1.5 29.2
20:40 1016 30 845 24.95 14.2 57.5 33 -1.6 29.1
20:45 1016 30 845 24.95 14.3 57.7 34 -1.5 29.4
20:50 1016 30 845 24.95 14.3 57.7 33 -1.6 29.2
20:55 1016 30 845 24.95 14.2 57.6 34 -1.5 29.3
21:00 1016 30 845 24.95 14.1 57.4 35 -1.2 29.9
21:05 1016 30 846 24.98 13.9 57 35 -1.4 29.5
21:10 1016 30 846 24.98 13.8 56.9 34 -1.6 29.2
21:15 1016 30 846 24.98 13.8 56.9 34 -1.6 29.2
21:20 1016 30 845 24.95 13.7 56.7 34 -1.6 29
21:25 1016 30 845 24.95 13.6 56.4 35 -1.7 29
21:30 1016 30 845 24.95 13.5 56.3 34 -1.9 28.6
21:35 1016 30 845 24.95 13.6 56.4 34 -1.8 28.7
21:40 1016 30 845 24.95 13.5 56.2 34 -1.9 28.6
21:45 1016 30 845 24.95 13.3 55.9 35 -1.8 28.8
21:50 1016 30 845 24.95 13.2 55.7 36 -1.6 29
21:55 1016 30 845 24.95 13.1 55.6 35 -1.9 28.6
22:00 1016 30 845 24.95 13.3 56 35 -1.8 28.8
22:05 1016 30 845 24.95 13.1 55.7 36 -1.7 28.9
22:10 1016 30 845 24.95 13.2 55.8 35 -1.7 28.9
22:15 1016 30 845 24.95 13.2 55.7 35 -1.9 28.6
22:20 1016 30 845 24.95 13.3 55.9 34 -2 28.4
22:25 1016 30 845 24.95 13.4 56.1 35 -1.8 28.7
22:30 1016 30 845 24.95 13.4 56 34 -2.1 28.2
22:35 1016 30 845 24.95 13.5 56.4 34 -2 28.3
22:40 1016 30 845 24.95 13.5 56.4 34 -2.1 28.2
22:45 1016 30 845 24.95 13.5 56.4 34 -2.1 28.2
22:50 1016 30 845 24.95 13.5 56.4 34 -2.1 28.2
22:55 1016 30 845 24.95 13.5 56.2 33 -2.3 27.9
23:00 1016 30 845 24.95 13.5 56.4 33 -2.4 27.7
23:05 1016 30 846 24.98 13.7 56.7 33 -2.2 28
23:10 1016 30 846 24.98 13.8 56.9 33 -2.3 27.9
23:15 1016 30 846 24.98 13.9 57 32 -2.3 27.8
23:20 1016 30 846 24.98 13.9 57 32 -2.3 27.9
23:25 1016 30 846 24.98 13.7 56.7 33 -2.3 27.8
23:30 1016 30 846 24.98 13.5 56.3 34 -2.1 28.1
23:35 1016 30 846 24.98 13.7 56.6 33 -2.4 27.6
23:40 1016 30 846 24.98 13.9 57 33 -2.2 28
23:45 1016 30 846 24.98 13.7 56.7 33 -2.2 28
23:50 1016 30 846 24.98 13.5 56.3 34 -1.9 28.6
23:55 1016 30 846 24.98 13.4 56.2 34 -2.1 28.2
24:00 1016 30 846 24.98 13.5 56.4 34 -1.9 28.5